sensor_id;sensor_type;location;lat;lon;timestamp;pressure;altitude;pressure_sealevel;temperature;humidity
20752;BME280;10536;51.582;5.016;2022-10-24T00:02:32;100326.78;;;18.37;100.00
20752;BME280;10536;51.582;5.016;2022-10-24T00:07:32;100332.88;;;18.53;100.00
20752;BME280;10536;51.582;5.016;2022-10-24T00:12:33;100326.91;;;18.18;100.00
20752;BME280;10536;51.582;5.016;2022-10-24T00:17:33;100332.78;;;18.05;100.00
20752;BME280;10536;51.582;5.016;2022-10-24T00:22:34;100327.19;;;17.95;100.00
20752;BME280;10536;51.582;5.016;2022-10-24T00:27:34;100325.41;;;18.29;100.00
20752;BME280;10536;51.582;5.016;2022-10-24T00:32:35;100317.38;;;18.17;100.00
20752;BME280;10536;51.582;5.016;2022-10-24T00:37:36;100314.47;;;18.05;100.00
20752;BME280;10536;51.582;5.016;2022-10-24T00:42:36;100305.16;;;18.33;100.00
20752;BME280;10536;51.582;5.016;2022-10-24T00:47:37;100305.75;;;18.22;100.00
20752;BME280;10536;51.582;5.016;2022-10-24T00:52:40;100309.19;;;18.23;100.00
20752;BME280;10536;51.582;5.016;2022-10-24T00:57:51;100305.75;;;18.38;100.00
20752;BME280;10536;51.582;5.016;2022-10-24T01:02:52;100303.28;;;18.35;100.00
20752;BME280;10536;51.582;5.016;2022-10-24T01:08:11;100302.13;;;18.72;100.00
20752;BME280;10536;51.582;5.016;2022-10-24T01:18:42;100300.72;;;18.18;100.00
20752;BME280;10536;51.582;5.016;2022-10-24T01:23:49;100302.38;;;18.36;100.00
20752;BME280;10536;51.582;5.016;2022-10-24T01:34:26;100300.31;;;17.74;100.00
20752;BME280;10536;51.582;5.016;2022-10-24T01:39:33;100293.91;;;18.15;100.00
20752;BME280;10536;51.582;5.016;2022-10-24T01:44:39;100294.53;;;18.36;100.00
20752;BME280;10536;51.582;5.016;2022-10-24T01:49:55;100294.63;;;18.50;100.00
20752;BME280;10536;51.582;5.016;2022-10-24T01:54:58;100285.72;;;18.37;100.00
20752;BME280;10536;51.582;5.016;2022-10-24T01:59:59;100288.53;;;18.34;100.00
20752;BME280;10536;51.582;5.016;2022-10-24T02:05:14;100288.97;;;18.42;100.00
20752;BME280;10536;51.582;5.016;2022-10-24T02:10:21;100281.09;;;18.42;100.00
20752;BME280;10536;51.582;5.016;2022-10-24T02:15:27;100282.28;;;18.52;100.00
20752;BME280;10536;51.582;5.016;2022-10-24T02:20:38;100270.63;;;18.42;100.00
20752;BME280;10536;51.582;5.016;2022-10-24T02:25:43;100276.97;;;18.70;100.00
20752;BME280;10536;51.582;5.016;2022-10-24T02:30:57;100275.94;;;18.88;100.00
20752;BME280;10536;51.582;5.016;2022-10-24T02:35:59;100273.22;;;18.74;100.00
20752;BME280;10536;51.582;5.016;2022-10-24T02:41:02;100273.78;;;18.81;100.00
20752;BME280;10536;51.582;5.016;2022-10-24T02:46:03;100269.03;;;18.87;100.00
20752;BME280;10536;51.582;5.016;2022-10-24T02:51:05;100281.88;;;17.60;100.00
20752;BME280;10536;51.582;5.016;2022-10-24T02:56:06;100280.34;;;17.56;100.00
20752;BME280;10536;51.582;5.016;2022-10-24T03:01:07;100291.25;;;17.99;100.00
20752;BME280;10536;51.582;5.016;2022-10-24T03:06:07;100280.81;;;18.15;100.00
20752;BME280;10536;51.582;5.016;2022-10-24T03:11:08;100285.22;;;18.30;100.00
20752;BME280;10536;51.582;5.016;2022-10-24T03:16:08;100289.75;;;18.11;100.00
20752;BME280;10536;51.582;5.016;2022-10-24T03:21:08;100283.28;;;18.34;100.00
20752;BME280;10536;51.582;5.016;2022-10-24T03:26:09;100280.31;;;18.08;100.00
20752;BME280;10536;51.582;5.016;2022-10-24T03:31:10;100279.72;;;18.35;100.00
20752;BME280;10536;51.582;5.016;2022-10-24T03:36:10;100269.03;;;18.55;100.00
20752;BME280;10536;51.582;5.016;2022-10-24T03:41:10;100281.69;;;18.47;100.00
20752;BME280;10536;51.582;5.016;2022-10-24T03:46:11;100271.81;;;18.52;100.00
20752;BME280;10536;51.582;5.016;2022-10-24T03:51:11;100264.38;;;18.61;100.00
20752;BME280;10536;51.582;5.016;2022-10-24T03:56:11;100257.69;;;18.55;100.00
20752;BME280;10536;51.582;5.016;2022-10-24T04:01:12;100259.53;;;18.37;100.00
20752;BME280;10536;51.582;5.016;2022-10-24T04:06:17;100263.09;;;18.36;100.00
20752;BME280;10536;51.582;5.016;2022-10-24T04:11:18;100256.50;;;18.29;100.00
20752;BME280;10536;51.582;5.016;2022-10-24T04:16:19;100258.78;;;18.35;100.00
20752;BME280;10536;51.582;5.016;2022-10-24T04:21:19;100257.75;;;18.22;100.00
20752;BME280;10536;51.582;5.016;2022-10-24T04:26:20;100257.00;;;18.20;100.00
20752;BME280;10536;51.582;5.016;2022-10-24T04:31:20;100255.41;;;18.49;100.00
20752;BME280;10536;51.582;5.016;2022-10-24T04:36:21;100260.13;;;18.74;100.00
20752;BME280;10536;51.582;5.016;2022-10-24T04:41:21;100270.78;;;18.39;100.00
20752;BME280;10536;51.582;5.016;2022-10-24T04:46:22;100253.47;;;18.52;100.00
20752;BME280;10536;51.582;5.016;2022-10-24T04:51:22;100256.69;;;18.73;100.00
20752;BME280;10536;51.582;5.016;2022-10-24T04:56:23;100254.13;;;18.72;100.00
20752;BME280;10536;51.582;5.016;2022-10-24T05:01:25;100260.22;;;18.72;100.00
20752;BME280;10536;51.582;5.016;2022-10-24T05:06:25;100262.34;;;18.50;100.00
20752;BME280;10536;51.582;5.016;2022-10-24T05:11:25;100262.34;;;18.34;100.00
20752;BME280;10536;51.582;5.016;2022-10-24T05:16:26;100262.41;;;18.17;100.00
20752;BME280;10536;51.582;5.016;2022-10-24T05:21:26;100259.06;;;18.46;100.00
20752;BME280;10536;51.582;5.016;2022-10-24T05:26:27;100263.84;;;18.70;100.00
20752;BME280;10536;51.582;5.016;2022-10-24T05:31:27;100268.34;;;18.84;100.00
20752;BME280;10536;51.582;5.016;2022-10-24T05:36:28;100277.78;;;19.18;100.00
20752;BME280;10536;51.582;5.016;2022-10-24T05:41:28;100288.78;;;19.09;100.00
20752;BME280;10536;51.582;5.016;2022-10-24T05:46:29;100278.06;;;18.98;100.00
20752;BME280;10536;51.582;5.016;2022-10-24T05:51:29;100275.44;;;18.98;100.00
20752;BME280;10536;51.582;5.016;2022-10-24T05:56:29;100290.06;;;19.32;100.00
20752;BME280;10536;51.582;5.016;2022-10-24T06:01:30;100298.59;;;19.05;100.00
20752;BME280;10536;51.582;5.016;2022-10-24T06:06:30;100286.00;;;19.12;100.00
20752;BME280;10536;51.582;5.016;2022-10-24T06:11:31;100302.34;;;18.85;100.00
20752;BME280;10536;51.582;5.016;2022-10-24T06:16:32;100302.38;;;19.16;100.00
20752;BME280;10536;51.582;5.016;2022-10-24T06:21:33;100320.34;;;18.91;100.00
20752;BME280;10536;51.582;5.016;2022-10-24T06:26:33;100313.09;;;18.81;100.00
20752;BME280;10536;51.582;5.016;2022-10-24T06:31:34;100326.03;;;18.50;100.00
20752;BME280;10536;51.582;5.016;2022-10-24T06:36:35;100327.81;;;18.34;100.00
20752;BME280;10536;51.582;5.016;2022-10-24T06:41:36;100333.91;;;18.66;100.00
20752;BME280;10536;51.582;5.016;2022-10-24T06:46:37;100353.59;;;18.73;100.00
20752;BME280;10536;51.582;5.016;2022-10-24T06:51:38;100352.50;;;18.78;100.00
20752;BME280;10536;51.582;5.016;2022-10-24T06:56:38;100366.63;;;18.75;100.00
20752;BME280;10536;51.582;5.016;2022-10-24T07:01:39;100365.06;;;18.55;100.00
20752;BME280;10536;51.582;5.016;2022-10-24T07:06:40;100371.50;;;18.83;100.00
20752;BME280;10536;51.582;5.016;2022-10-24T07:11:40;100379.41;;;19.13;100.00
20752;BME280;10536;51.582;5.016;2022-10-24T07:16:41;100380.38;;;19.12;100.00
20752;BME280;10536;51.582;5.016;2022-10-24T07:21:41;100375.69;;;19.17;100.00
20752;BME280;10536;51.582;5.016;2022-10-24T07:26:42;100402.31;;;19.25;100.00
20752;BME280;10536;51.582;5.016;2022-10-24T07:31:42;100410.38;;;19.06;100.00
20752;BME280;10536;51.582;5.016;2022-10-24T07:36:43;100419.63;;;18.80;100.00
20752;BME280;10536;51.582;5.016;2022-10-24T07:41:43;100435.31;;;18.98;100.00
20752;BME280;10536;51.582;5.016;2022-10-24T07:46:43;100436.06;;;19.00;100.00
20752;BME280;10536;51.582;5.016;2022-10-24T07:51:44;100440.66;;;19.28;100.00
20752;BME280;10536;51.582;5.016;2022-10-24T07:56:44;100449.59;;;19.08;100.00
20752;BME280;10536;51.582;5.016;2022-10-24T08:01:45;100458.06;;;19.29;100.00
20752;BME280;10536;51.582;5.016;2022-10-24T08:06:45;100470.94;;;19.33;100.00
20752;BME280;10536;51.582;5.016;2022-10-24T08:11:46;100458.47;;;19.69;100.00
20752;BME280;10536;51.582;5.016;2022-10-24T08:16:46;100468.03;;;19.54;100.00
20752;BME280;10536;51.582;5.016;2022-10-24T08:21:47;100476.59;;;19.73;100.00
20752;BME280;10536;51.582;5.016;2022-10-24T08:26:49;100470.63;;;19.86;100.00
20752;BME280;10536;51.582;5.016;2022-10-24T08:31:52;100489.47;;;20.08;100.00
20752;BME280;10536;51.582;5.016;2022-10-24T08:36:53;100498.91;;;19.97;100.00
20752;BME280;10536;51.582;5.016;2022-10-24T08:41:56;100500.53;;;19.83;100.00
20752;BME280;10536;51.582;5.016;2022-10-24T08:52:16;100517.00;;;20.01;100.00
20752;BME280;10536;51.582;5.016;2022-10-24T08:57:24;100494.22;;;20.32;100.00
20752;BME280;10536;51.582;5.016;2022-10-24T09:02:27;100519.78;;;20.14;100.00
20752;BME280;10536;51.582;5.016;2022-10-24T09:07:32;100503.69;;;20.35;100.00
20752;BME280;10536;51.582;5.016;2022-10-24T09:12:33;100504.50;;;20.21;100.00
20752;BME280;10536;51.582;5.016;2022-10-24T09:17:34;100513.06;;;20.69;100.00
20752;BME280;10536;51.582;5.016;2022-10-24T09:22:36;100534.47;;;20.63;100.00
20752;BME280;10536;51.582;5.016;2022-10-24T09:27:38;100511.09;;;20.73;100.00
20752;BME280;10536;51.582;5.016;2022-10-24T09:32:40;100531.28;;;20.72;100.00
20752;BME280;10536;51.582;5.016;2022-10-24T09:37:47;100523.53;;;20.55;100.00
20752;BME280;10536;51.582;5.016;2022-10-24T09:43:03;100542.84;;;20.54;100.00
20752;BME280;10536;51.582;5.016;2022-10-24T09:48:18;100564.03;;;20.50;100.00
20752;BME280;10536;51.582;5.016;2022-10-24T09:53:34;100568.78;;;20.60;100.00
20752;BME280;10536;51.582;5.016;2022-10-24T09:58:35;100569.97;;;20.84;100.00
20752;BME280;10536;51.582;5.016;2022-10-24T10:03:35;100580.69;;;20.96;100.00
20752;BME280;10536;51.582;5.016;2022-10-24T10:08:36;100575.41;;;21.24;100.00
20752;BME280;10536;51.582;5.016;2022-10-24T10:13:49;100584.44;;;20.92;100.00
20752;BME280;10536;51.582;5.016;2022-10-24T10:19:05;100610.16;;;20.86;100.00
20752;BME280;10536;51.582;5.016;2022-10-24T10:24:27;100623.16;;;20.43;100.00
20752;BME280;10536;51.582;5.016;2022-10-24T10:29:39;100618.34;;;20.66;100.00
20752;BME280;10536;51.582;5.016;2022-10-24T10:34:45;100615.22;;;20.89;100.00
20752;BME280;10536;51.582;5.016;2022-10-24T10:50:26;100630.97;;;20.75;100.00
20752;BME280;10536;51.582;5.016;2022-10-24T10:55:36;100645.22;;;21.01;100.00
20752;BME280;10536;51.582;5.016;2022-10-24T11:00:48;100652.06;;;21.04;100.00
20752;BME280;10536;51.582;5.016;2022-10-24T11:11:26;100650.00;;;21.38;100.00
20752;BME280;10536;51.582;5.016;2022-10-24T11:16:29;100651.31;;;21.30;100.00
20752;BME280;10536;51.582;5.016;2022-10-24T11:21:32;100648.66;;;21.46;100.00
20752;BME280;10536;51.582;5.016;2022-10-24T11:27:03;100668.97;;;21.28;100.00
20752;BME280;10536;51.582;5.016;2022-10-24T11:32:51;100663.09;;;21.54;100.00
20752;BME280;10536;51.582;5.016;2022-10-24T11:38:02;100658.97;;;20.90;100.00
20752;BME280;10536;51.582;5.016;2022-10-24T11:43:14;100673.41;;;20.83;100.00
20752;BME280;10536;51.582;5.016;2022-10-24T11:48:30;100689.44;;;21.09;100.00
20752;BME280;10536;51.582;5.016;2022-10-24T11:58:49;100705.31;;;20.77;100.00
20752;BME280;10536;51.582;5.016;2022-10-24T12:15:25;100689.75;;;20.74;100.00
20752;BME280;10536;51.582;5.016;2022-10-24T12:20:30;100708.66;;;20.49;100.00
20752;BME280;10536;51.582;5.016;2022-10-24T12:25:33;100690.16;;;20.50;100.00
20752;BME280;10536;51.582;5.016;2022-10-24T12:30:35;100701.69;;;20.48;100.00
20752;BME280;10536;51.582;5.016;2022-10-24T12:45:46;100687.28;;;20.55;100.00
20752;BME280;10536;51.582;5.016;2022-10-24T12:50:56;100682.19;;;20.52;100.00
20752;BME280;10536;51.582;5.016;2022-10-24T13:01:21;100696.19;;;20.52;100.00
20752;BME280;10536;51.582;5.016;2022-10-24T13:16:42;100672.72;;;20.96;100.00
20752;BME280;10536;51.582;5.016;2022-10-24T13:21:56;100681.81;;;20.90;100.00
20752;BME280;10536;51.582;5.016;2022-10-24T13:37:21;100683.53;;;20.75;100.00
20752;BME280;10536;51.582;5.016;2022-10-24T13:42:28;100688.97;;;20.72;100.00
20752;BME280;10536;51.582;5.016;2022-10-24T13:47:35;100692.94;;;20.79;100.00
20752;BME280;10536;51.582;5.016;2022-10-24T13:52:45;100699.69;;;20.83;100.00
20752;BME280;10536;51.582;5.016;2022-10-24T14:02:50;100704.28;;;21.10;100.00
20752;BME280;10536;51.582;5.016;2022-10-24T14:07:51;100698.38;;;21.21;100.00
20752;BME280;10536;51.582;5.016;2022-10-24T14:12:52;100697.53;;;21.20;100.00
20752;BME280;10536;51.582;5.016;2022-10-24T14:18:02;100705.81;;;21.28;100.00
20752;BME280;10536;51.582;5.016;2022-10-24T14:28:36;100715.59;;;21.26;100.00
20752;BME280;10536;51.582;5.016;2022-10-24T14:33:43;100717.16;;;21.15;100.00
20752;BME280;10536;51.582;5.016;2022-10-24T14:38:43;100724.22;;;21.14;100.00
20752;BME280;10536;51.582;5.016;2022-10-24T14:43:44;100731.50;;;21.09;100.00
20752;BME280;10536;51.582;5.016;2022-10-24T14:48:46;100736.38;;;21.01;100.00
20752;BME280;10536;51.582;5.016;2022-10-24T14:53:48;100743.13;;;20.90;100.00
20752;BME280;10536;51.582;5.016;2022-10-24T14:58:54;100755.84;;;20.82;100.00
20752;BME280;10536;51.582;5.016;2022-10-24T15:03:57;100745.19;;;20.69;100.00
20752;BME280;10536;51.582;5.016;2022-10-24T15:19:36;100755.19;;;20.63;100.00
20752;BME280;10536;51.582;5.016;2022-10-24T15:24:37;100760.44;;;20.31;100.00
20752;BME280;10536;51.582;5.016;2022-10-24T15:29:39;100758.94;;;20.09;100.00
20752;BME280;10536;51.582;5.016;2022-10-24T15:34:39;100758.66;;;20.16;100.00
20752;BME280;10536;51.582;5.016;2022-10-24T15:39:40;100768.53;;;19.95;100.00
20752;BME280;10536;51.582;5.016;2022-10-24T15:44:41;100767.72;;;19.77;100.00
20752;BME280;10536;51.582;5.016;2022-10-24T15:49:42;100788.53;;;19.80;100.00
20752;BME280;10536;51.582;5.016;2022-10-24T15:54:42;100787.69;;;19.79;100.00
20752;BME280;10536;51.582;5.016;2022-10-24T15:59:43;100793.63;;;19.65;100.00
20752;BME280;10536;51.582;5.016;2022-10-24T16:04:43;100792.41;;;19.55;100.00
20752;BME280;10536;51.582;5.016;2022-10-24T16:09:44;100795.50;;;19.28;100.00
20752;BME280;10536;51.582;5.016;2022-10-24T16:14:45;100807.19;;;19.04;100.00
20752;BME280;10536;51.582;5.016;2022-10-24T16:19:45;100802.56;;;19.09;100.00
20752;BME280;10536;51.582;5.016;2022-10-24T16:24:46;100811.28;;;19.27;100.00
20752;BME280;10536;51.582;5.016;2022-10-24T16:29:46;100807.56;;;19.13;100.00
20752;BME280;10536;51.582;5.016;2022-10-24T16:34:47;100816.16;;;19.17;100.00
20752;BME280;10536;51.582;5.016;2022-10-24T16:39:49;100814.91;;;19.07;100.00
20752;BME280;10536;51.582;5.016;2022-10-24T16:44:50;100813.72;;;18.95;100.00
20752;BME280;10536;51.582;5.016;2022-10-24T16:49:58;100813.06;;;19.09;100.00
20752;BME280;10536;51.582;5.016;2022-10-24T16:54:58;100807.69;;;19.12;100.00
20752;BME280;10536;51.582;5.016;2022-10-24T16:59:59;100819.50;;;19.02;100.00
20752;BME280;10536;51.582;5.016;2022-10-24T17:04:59;100821.19;;;18.85;100.00
20752;BME280;10536;51.582;5.016;2022-10-24T17:10:00;100826.56;;;18.63;100.00
20752;BME280;10536;51.582;5.016;2022-10-24T17:15:00;100824.97;;;18.78;100.00
20752;BME280;10536;51.582;5.016;2022-10-24T17:20:01;100841.00;;;18.72;100.00
20752;BME280;10536;51.582;5.016;2022-10-24T17:25:02;100843.41;;;18.58;100.00
20752;BME280;10536;51.582;5.016;2022-10-24T17:30:03;100841.28;;;18.66;100.00
20752;BME280;10536;51.582;5.016;2022-10-24T17:35:04;100847.78;;;18.76;100.00
20752;BME280;10536;51.582;5.016;2022-10-24T17:40:16;100852.50;;;19.06;100.00
20752;BME280;10536;51.582;5.016;2022-10-24T17:45:20;100862.63;;;19.50;100.00
20752;BME280;10536;51.582;5.016;2022-10-24T17:50:21;100880.66;;;19.39;100.00
20752;BME280;10536;51.582;5.016;2022-10-24T17:55:24;100896.03;;;19.10;100.00
20752;BME280;10536;51.582;5.016;2022-10-24T18:00:25;100904.94;;;19.06;100.00
20752;BME280;10536;51.582;5.016;2022-10-24T18:05:25;100892.84;;;19.03;100.00
20752;BME280;10536;51.582;5.016;2022-10-24T18:10:27;100909.88;;;18.94;100.00
20752;BME280;10536;51.582;5.016;2022-10-24T18:15:28;100906.16;;;18.80;100.00
20752;BME280;10536;51.582;5.016;2022-10-24T18:20:29;100908.56;;;18.84;100.00
20752;BME280;10536;51.582;5.016;2022-10-24T18:25:31;100915.66;;;18.82;100.00
20752;BME280;10536;51.582;5.016;2022-10-24T18:30:31;100910.66;;;18.97;100.00
20752;BME280;10536;51.582;5.016;2022-10-24T18:35:34;100911.84;;;18.89;100.00
20752;BME280;10536;51.582;5.016;2022-10-24T18:40:35;100900.72;;;18.84;100.00
20752;BME280;10536;51.582;5.016;2022-10-24T18:45:37;100893.25;;;18.75;100.00
20752;BME280;10536;51.582;5.016;2022-10-24T18:50:37;100910.56;;;18.40;100.00
20752;BME280;10536;51.582;5.016;2022-10-24T18:55:38;100905.63;;;18.52;100.00
20752;BME280;10536;51.582;5.016;2022-10-24T19:00:39;100917.59;;;18.19;100.00
20752;BME280;10536;51.582;5.016;2022-10-24T19:05:46;100906.19;;;18.40;100.00
20752;BME280;10536;51.582;5.016;2022-10-24T19:10:48;100916.81;;;18.17;100.00
20752;BME280;10536;51.582;5.016;2022-10-24T19:15:56;100928.72;;;18.03;100.00
20752;BME280;10536;51.582;5.016;2022-10-24T19:20:57;100930.75;;;18.17;100.00
20752;BME280;10536;51.582;5.016;2022-10-24T19:25:58;100927.78;;;18.04;100.00
20752;BME280;10536;51.582;5.016;2022-10-24T19:30:58;100928.78;;;18.02;100.00
20752;BME280;10536;51.582;5.016;2022-10-24T19:36:03;100930.03;;;17.93;100.00
20752;BME280;10536;51.582;5.016;2022-10-24T19:41:06;100939.53;;;17.73;100.00
20752;BME280;10536;51.582;5.016;2022-10-24T19:46:07;100931.19;;;17.86;100.00
20752;BME280;10536;51.582;5.016;2022-10-24T19:51:10;100948.06;;;17.56;100.00
20752;BME280;10536;51.582;5.016;2022-10-24T19:56:22;100953.16;;;17.37;100.00
20752;BME280;10536;51.582;5.016;2022-10-24T20:01:26;100952.72;;;17.26;100.00
20752;BME280;10536;51.582;5.016;2022-10-24T20:06:26;100962.72;;;17.39;100.00
20752;BME280;10536;51.582;5.016;2022-10-24T20:11:27;100959.97;;;17.42;100.00
20752;BME280;10536;51.582;5.016;2022-10-24T20:16:27;100969.28;;;17.27;100.00
20752;BME280;10536;51.582;5.016;2022-10-24T20:21:28;100975.66;;;17.42;100.00
20752;BME280;10536;51.582;5.016;2022-10-24T20:26:28;100968.50;;;17.25;100.00
20752;BME280;10536;51.582;5.016;2022-10-24T20:31:34;100979.53;;;17.31;100.00
20752;BME280;10536;51.582;5.016;2022-10-24T20:36:37;100978.44;;;17.15;100.00
20752;BME280;10536;51.582;5.016;2022-10-24T20:41:38;100980.59;;;17.04;100.00
20752;BME280;10536;51.582;5.016;2022-10-24T20:46:38;100989.25;;;16.81;100.00
20752;BME280;10536;51.582;5.016;2022-10-24T20:51:42;100991.47;;;16.68;100.00
20752;BME280;10536;51.582;5.016;2022-10-24T20:56:42;100998.66;;;16.86;100.00
20752;BME280;10536;51.582;5.016;2022-10-24T21:01:43;100998.34;;;16.70;100.00
20752;BME280;10536;51.582;5.016;2022-10-24T21:06:43;101004.94;;;16.81;100.00
20752;BME280;10536;51.582;5.016;2022-10-24T21:11:44;101008.56;;;16.76;100.00
20752;BME280;10536;51.582;5.016;2022-10-24T21:16:44;101015.69;;;16.71;100.00
20752;BME280;10536;51.582;5.016;2022-10-24T21:21:45;101023.03;;;17.10;100.00
20752;BME280;10536;51.582;5.016;2022-10-24T21:26:45;101028.34;;;17.09;100.00
20752;BME280;10536;51.582;5.016;2022-10-24T21:31:47;101044.22;;;17.26;100.00
20752;BME280;10536;51.582;5.016;2022-10-24T21:36:48;101037.41;;;17.22;100.00
20752;BME280;10536;51.582;5.016;2022-10-24T21:41:48;101035.25;;;17.33;100.00
20752;BME280;10536;51.582;5.016;2022-10-24T21:46:49;101033.47;;;17.34;100.00
20752;BME280;10536;51.582;5.016;2022-10-24T21:51:51;101046.19;;;17.43;100.00
20752;BME280;10536;51.582;5.016;2022-10-24T21:56:51;101054.34;;;17.12;100.00
20752;BME280;10536;51.582;5.016;2022-10-24T22:01:52;101055.81;;;17.19;100.00
20752;BME280;10536;51.582;5.016;2022-10-24T22:06:52;101053.53;;;17.33;100.00
20752;BME280;10536;51.582;5.016;2022-10-24T22:11:53;101061.63;;;17.27;100.00
20752;BME280;10536;51.582;5.016;2022-10-24T22:16:57;101059.25;;;17.21;100.00
20752;BME280;10536;51.582;5.016;2022-10-24T22:21:57;101064.19;;;17.29;100.00
20752;BME280;10536;51.582;5.016;2022-10-24T22:26:57;101074.97;;;17.20;100.00
20752;BME280;10536;51.582;5.016;2022-10-24T22:31:58;101079.03;;;17.28;100.00
20752;BME280;10536;51.582;5.016;2022-10-24T22:37:22;101074.88;;;17.46;100.00
20752;BME280;10536;51.582;5.016;2022-10-24T22:42:23;101084.25;;;17.74;100.00
20752;BME280;10536;51.582;5.016;2022-10-24T22:47:40;101093.03;;;17.49;100.00
20752;BME280;10536;51.582;5.016;2022-10-24T22:52:44;101100.81;;;17.51;100.00
20752;BME280;10536;51.582;5.016;2022-10-24T22:57:45;101104.84;;;17.36;100.00
20752;BME280;10536;51.582;5.016;2022-10-24T23:02:45;101111.53;;;17.45;100.00
20752;BME280;10536;51.582;5.016;2022-10-24T23:07:55;101123.56;;;17.49;100.00
20752;BME280;10536;51.582;5.016;2022-10-24T23:12:57;101130.56;;;17.48;100.00
20752;BME280;10536;51.582;5.016;2022-10-24T23:17:58;101127.41;;;17.40;100.00
20752;BME280;10536;51.582;5.016;2022-10-24T23:22:59;101139.16;;;17.52;100.00
20752;BME280;10536;51.582;5.016;2022-10-24T23:33:21;101141.13;;;17.69;100.00
20752;BME280;10536;51.582;5.016;2022-10-24T23:38:23;101145.03;;;17.81;100.00
20752;BME280;10536;51.582;5.016;2022-10-24T23:43:24;101146.03;;;17.78;100.00
20752;BME280;10536;51.582;5.016;2022-10-24T23:48:56;101153.91;;;18.00;100.00
20752;BME280;10536;51.582;5.016;2022-10-24T23:54:01;101147.44;;;17.87;100.00
20752;BME280;10536;51.582;5.016;2022-10-24T23:59:01;101146.88;;;17.79;100.00
